Time;durP1;ratioP1;P1;durP2;ratioP2;P2;SDS_P1;SDS_P2;PMS_P1;PMS_P2;Temp;Humidity;BMP_temperature;BMP_pressure;BME280_temperature;BME280_humidity;BME280_pressure;Samples;Min_cycle;Max_cycle;Signal;HPM_P1;HPM_P2
2023/07/01 00:01:43;;;;;;;3.95;1.67;;;;;;;17.33;52.35;99806.34;10245314;28;20055;-59
2023/07/01 00:06:44;;;;;;;2.40;1.23;;;;;;;17.28;52.35;99801.63;10230721;28;20450;-59
2023/07/01 00:11:46;;;;;;;1.63;1.30;;;;;;;17.27;52.66;99793.72;10249113;28;20043;-59
2023/07/01 00:16:47;;;;;;;3.45;1.20;;;;;;;17.16;52.91;99788.03;10243844;28;20066;-59
2023/07/01 00:21:49;;;;;;;2.15;1.17;;;;;;;17.08;53.18;99793.81;10248466;28;20043;-59
2023/07/01 00:26:50;;;;;;;3.83;1.40;;;;;;;17.00;53.41;99789.53;10248084;28;20127;-59
2023/07/01 00:31:52;;;;;;;2.78;1.25;;;;;;;16.99;53.21;99789.75;10241271;28;20062;-59
2023/07/01 00:36:53;;;;;;;2.70;1.42;;;;;;;16.90;53.39;99788.41;10242396;28;20469;-58
2023/07/01 00:41:54;;;;;;;3.65;1.40;;;;;;;16.76;53.93;99783.13;10246669;28;20050;-60
2023/07/01 00:46:56;;;;;;;2.58;1.80;;;;;;;16.71;53.75;99774.06;10239449;28;20069;-59
2023/07/01 00:51:57;;;;;;;6.57;2.58;;;;;;;16.70;53.84;99765.06;10242501;28;20047;-59
2023/07/01 00:57:01;;;;;;;5.97;1.52;;;;;;;16.67;54.51;99762.84;10242085;28;20699;-59
2023/07/01 01:02:06;;;;;;;3.67;1.08;;;;;;;16.56;54.81;99761.72;10238253;28;20110;-59
2023/07/01 01:07:13;;;;;;;2.00;1.20;;;;;;;16.48;55.00;99761.22;10241143;28;20838;-58
2023/07/01 01:12:18;;;;;;;4.57;1.25;;;;;;;16.43;55.04;99748.34;10240654;28;20071;-60
2023/07/01 01:17:21;;;;;;;1.40;1.27;;;;;;;16.34;55.32;99742.41;10244195;28;20050;-60
2023/07/01 01:22:26;;;;;;;2.40;1.25;;;;;;;16.27;55.20;99736.22;10229000;28;20051;-60
2023/07/01 01:27:30;;;;;;;2.63;1.02;;;;;;;16.24;55.18;99736.69;10238282;28;20055;-57
2023/07/01 01:32:33;;;;;;;4.45;1.30;;;;;;;16.18;55.15;99745.75;10242557;28;20590;-59
2023/07/01 01:37:45;;;;;;;3.47;1.05;;;;;;;16.13;54.98;99737.44;10243406;28;20137;-59
2023/07/01 01:42:47;;;;;;;3.03;1.23;;;;;;;16.09;55.10;99742.50;10239415;28;20054;-59
2023/07/01 01:47:49;;;;;;;2.90;1.30;;;;;;;16.09;55.37;99738.97;10242418;28;20569;-59
2023/07/01 01:52:52;;;;;;;3.13;1.35;;;;;;;16.03;55.38;99741.53;10236087;28;20130;-59
2023/07/01 01:57:54;;;;;;;1.88;1.40;;;;;;;16.00;55.64;99722.19;10244049;28;20057;-59
2023/07/01 02:02:55;;;;;;;6.05;1.30;;;;;;;15.97;55.74;99719.91;10244842;28;20475;-58
2023/07/01 02:08:01;;;;;;;2.85;1.48;;;;;;;15.97;55.99;99722.63;10239638;28;20051;-59
2023/07/01 02:13:05;;;;;;;7.47;1.92;;;;;;;15.94;56.19;99723.09;10239612;28;20047;-59
2023/07/01 02:18:06;;;;;;;1.52;1.30;;;;;;;15.95;56.15;99711.19;10246008;28;20759;-58
2023/07/01 02:23:08;;;;;;;2.10;1.15;;;;;;;15.93;56.07;99711.41;10244034;28;20059;-58
2023/07/01 02:28:09;;;;;;;2.72;1.50;;;;;;;15.90;56.51;99701.03;10246212;28;20074;-58
2023/07/01 02:33:11;;;;;;;6.03;1.40;;;;;;;15.92;56.15;99706.25;10249807;28;20047;-58
2023/07/01 02:38:14;;;;;;;1.70;1.02;;;;;;;15.90;56.23;99690.19;10247199;28;20047;-58
2023/07/01 02:43:15;;;;;;;3.67;1.73;;;;;;;15.91;56.23;99691.84;10253437;28;20047;-58
2023/07/01 02:48:17;;;;;;;1.95;1.15;;;;;;;15.89;56.53;99690.41;10247286;28;20071;-58
2023/07/01 02:53:19;;;;;;;2.03;1.23;;;;;;;15.94;56.28;99688.69;10250585;28;20072;-58
2023/07/01 02:58:22;;;;;;;3.90;1.40;;;;;;;15.95;56.03;99690.31;10226887;28;20442;-58
2023/07/01 03:03:23;;;;;;;3.22;1.00;;;;;;;15.99;56.04;99694.22;10243445;28;20139;-58
2023/07/01 03:08:25;;;;;;;3.45;1.10;;;;;;;16.07;55.96;99693.09;10249109;28;20142;-59
2023/07/01 03:13:26;;;;;;;2.75;1.13;;;;;;;16.19;55.92;99690.44;10247865;28;20085;-58
2023/07/01 03:18:27;;;;;;;1.95;1.20;;;;;;;16.28;56.07;99686.34;10250972;28;20142;-59
2023/07/01 03:23:30;;;;;;;2.10;1.20;;;;;;;16.44;56.20;99684.88;10246075;28;20078;-59
2023/07/01 03:28:31;;;;;;;3.47;1.42;;;;;;;16.52;56.08;99689.97;10247254;28;20532;-59
2023/07/01 03:33:33;;;;;;;3.45;1.77;;;;;;;16.61;56.11;99690.50;10244261;28;20038;-60
2023/07/01 03:38:35;;;;;;;2.33;1.27;;;;;;;16.64;56.13;99677.25;10252590;28;20053;-59
2023/07/01 03:43:36;;;;;;;1.92;1.02;;;;;;;16.70;56.04;99680.94;10247751;28;20047;-60
2023/07/01 03:48:38;;;;;;;3.25;1.05;;;;;;;16.78;56.18;99675.16;10245019;28;20153;-59
2023/07/01 03:53:39;;;;;;;2.35;1.40;;;;;;;16.83;56.10;99669.91;10246272;28;20530;-59
2023/07/01 03:58:41;;;;;;;4.00;1.70;;;;;;;16.88;56.72;99671.91;10246749;28;20047;-59
2023/07/01 04:03:42;;;;;;;7.65;2.65;;;;;;;16.93;56.71;99674.75;10248475;28;20043;-59
2023/07/01 04:08:43;;;;;;;3.80;1.98;;;;;;;16.99;56.89;99668.38;10242895;28;20055;-59
2023/07/01 04:13:45;;;;;;;5.55;1.60;;;;;;;17.10;56.87;99664.03;10246943;28;20058;-59
2023/07/01 04:18:46;;;;;;;3.60;1.60;;;;;;;17.21;56.79;99665.91;10247924;28;20047;-59
2023/07/01 04:23:47;;;;;;;6.70;2.17;;;;;;;17.34;56.60;99664.84;10245453;28;20051;-59
2023/07/01 04:28:49;;;;;;;3.03;1.60;;;;;;;17.45;56.50;99661.28;10245250;28;20055;-59
2023/07/01 04:33:50;;;;;;;4.22;1.42;;;;;;;17.59;56.24;99656.41;10232496;28;20043;-60
2023/07/01 04:38:52;;;;;;;8.05;2.17;;;;;;;17.71;55.98;99642.78;10246813;28;20043;-59
2023/07/01 04:43:54;;;;;;;1.50;1.33;;;;;;;17.78;55.53;99642.69;10245987;28;20054;-59
2023/07/01 04:48:56;;;;;;;5.68;2.08;;;;;;;17.88;55.20;99648.34;10243143;28;20051;-59
2023/07/01 04:53:57;;;;;;;2.58;1.55;;;;;;;17.89;54.74;99638.28;10237010;28;20054;-60
2023/07/01 04:59:00;;;;;;;5.90;2.38;;;;;;;17.98;54.56;99637.66;10244706;28;20051;-59
2023/07/01 05:04:02;;;;;;;2.38;1.50;;;;;;;18.04;53.81;99628.53;10246120;28;20063;-60
2023/07/01 05:09:04;;;;;;;5.53;1.67;;;;;;;18.11;54.14;99635.72;10239679;28;20082;-60
2023/07/01 05:14:06;;;;;;;2.03;1.30;;;;;;;18.14;53.85;99635.25;10243100;28;20059;-60
2023/07/01 05:19:07;;;;;;;4.07;1.83;;;;;;;18.32;53.53;99632.31;10245173;28;20062;-60
2023/07/01 05:24:08;;;;;;;3.33;1.65;;;;;;;18.33;53.88;99624.97;10240042;28;20050;-60
2023/07/01 05:29:10;;;;;;;5.03;1.30;;;;;;;18.63;53.52;99621.94;10242889;28;20055;-60
2023/07/01 05:34:11;;;;;;;6.47;1.70;;;;;;;18.92;52.97;99620.00;10239701;28;20058;-61
2023/07/01 05:39:13;;;;;;;1.98;1.27;;;;;;;19.08;52.80;99625.69;10244589;28;20048;-60
2023/07/01 05:44:15;;;;;;;3.05;1.40;;;;;;;19.07;52.99;99627.56;10247715;28;20048;-61
2023/07/01 05:49:16;;;;;;;2.00;1.20;;;;;;;19.11;52.71;99619.72;10241464;28;20062;-60
2023/07/01 05:54:18;;;;;;;2.78;1.00;;;;;;;19.19;52.34;99614.69;10247880;28;20055;-60
2023/07/01 05:59:20;;;;;;;2.35;1.27;;;;;;;19.28;52.12;99622.44;10245545;28;20048;-67
2023/07/01 06:04:22;;;;;;;3.38;1.30;;;;;;;19.19;52.01;99620.13;10249175;28;20066;-65
2023/07/01 06:09:23;;;;;;;2.03;1.05;;;;;;;19.28;51.92;99625.16;10251258;28;20085;-69
2023/07/01 06:14:25;;;;;;;5.80;1.48;;;;;;;19.37;51.65;99623.63;10249683;28;20061;-65
2023/07/01 06:19:26;;;;;;;6.22;1.88;;;;;;;19.52;51.42;99607.47;10249726;28;20058;-69
2023/07/01 06:24:28;;;;;;;2.85;1.45;;;;;;;19.70;50.89;99610.97;10232575;28;20043;-67
2023/07/01 06:29:29;;;;;;;4.18;1.33;;;;;;;19.80;50.82;99598.28;10249863;28;20055;-65
2023/07/01 06:34:31;;;;;;;5.25;1.38;;;;;;;19.99;50.77;99597.97;10245479;28;20075;-67
2023/07/01 06:39:32;;;;;;;4.45;1.67;;;;;;;20.12;50.23;99589.38;10249202;28;20051;-65
2023/07/01 06:44:34;;;;;;;4.95;1.13;;;;;;;20.46;50.09;99589.13;10243116;28;20073;-68
2023/07/01 06:49:36;;;;;;;5.25;0.93;;;;;;;20.52;49.36;99585.34;10244917;28;20078;-65
2023/07/01 06:54:37;;;;;;;2.08;0.93;;;;;;;20.72;48.95;99576.53;10250387;28;20078;-66
2023/07/01 06:59:39;;;;;;;3.55;1.27;;;;;;;20.79;48.70;99581.75;10243955;28;20051;-65
2023/07/01 07:04:40;;;;;;;4.45;0.95;;;;;;;20.85;48.92;99585.34;10244528;28;20055;-67
2023/07/01 07:09:44;;;;;;;4.05;1.02;;;;;;;21.06;48.65;99572.66;10237629;28;20055;-67
2023/07/01 07:14:46;;;;;;;2.83;1.27;;;;;;;21.37;47.70;99570.91;10240618;28;20055;-68
2023/07/01 07:19:47;;;;;;;3.28;1.02;;;;;;;21.58;47.14;99558.97;10239232;28;20051;-66
2023/07/01 07:24:49;;;;;;;4.07;1.00;;;;;;;21.79;46.76;99557.09;10244657;28;20059;-69
2023/07/01 07:29:50;;;;;;;3.70;1.20;;;;;;;21.77;46.58;99551.09;10246383;28;20047;-68
2023/07/01 07:34:51;;;;;;;2.88;1.00;;;;;;;21.94;46.01;99542.66;10243415;28;20066;-66
2023/07/01 07:39:53;;;;;;;2.53;1.08;;;;;;;22.38;45.25;99533.94;10245476;28;20046;-66
2023/07/01 07:44:54;;;;;;;4.22;0.90;;;;;;;22.69;44.45;99536.66;10246639;28;20059;-66
2023/07/01 07:49:56;;;;;;;3.47;1.00;;;;;;;22.79;44.37;99519.38;10241177;28;20052;-66
2023/07/01 07:54:57;;;;;;;5.85;0.73;;;;;;;22.99;43.91;99507.53;10248665;28;20052;-68
2023/07/01 07:59:59;;;;;;;3.80;1.20;;;;;;;23.33;43.14;99513.19;10238204;28;20059;-68
2023/07/01 08:05:02;;;;;;;3.50;0.50;;;;;;;23.47;42.02;99509.84;10247436;28;20047;-68
2023/07/01 08:10:08;;;;;;;1.20;0.50;;;;;;;23.16;41.17;99510.81;10246873;28;20080;-70
2023/07/01 08:15:10;;;;;;;1.83;0.50;;;;;;;23.21;41.11;99500.91;10247216;28;20063;-69
2023/07/01 08:20:11;;;;;;;2.88;0.57;;;;;;;23.33;41.09;99493.19;10241997;28;20059;-67
2023/07/01 08:25:13;;;;;;;4.78;0.45;;;;;;;23.32;41.42;99503.34;10241412;28;20094;-66
2023/07/01 08:30:14;;;;;;;2.28;1.05;;;;;;;23.66;41.27;99491.63;10242001;28;20062;-66
2023/07/01 08:35:16;;;;;;;4.13;0.40;;;;;;;23.94;41.35;99505.75;10246854;28;20058;-68
2023/07/01 08:40:18;;;;;;;0.90;0.47;;;;;;;23.65;41.84;99497.41;10236059;28;20499;-65
2023/07/01 08:45:21;;;;;;;2.15;0.40;;;;;;;23.43;41.94;99489.56;10242165;28;20051;-70
2023/07/01 08:50:25;;;;;;;4.97;0.40;;;;;;;23.35;42.12;99493.72;10239985;28;20050;-68
2023/07/01 08:55:26;;;;;;;1.25;0.40;;;;;;;23.39;41.93;99492.03;10237385;28;20061;-69
2023/07/01 09:00:29;;;;;;;2.90;0.60;;;;;;;23.53;41.81;99489.50;10229829;28;20051;-67
2023/07/01 09:05:30;;;;;;;4.05;0.50;;;;;;;23.61;41.76;99490.84;10232656;28;20047;-64
2023/07/01 09:10:32;;;;;;;1.17;0.50;;;;;;;23.44;42.38;99488.44;10233440;28;20055;-68
2023/07/01 09:15:43;;;;;;;4.32;0.40;;;;;;;23.53;42.31;99490.31;10238356;28;20059;-68
2023/07/01 09:20:45;;;;;;;1.40;0.50;;;;;;;23.70;42.24;99484.47;10243418;28;20065;-63
2023/07/01 09:25:46;;;;;;;1.58;0.47;;;;;;;23.49;42.71;99502.16;10249870;28;20057;-74
2023/07/01 09:30:48;;;;;;;0.70;0.40;;;;;;;23.41;42.83;99487.09;10242593;28;20058;-76
2023/07/01 09:35:55;;;;;;;2.47;0.50;;;;;;;23.33;42.95;99480.28;10242310;28;20070;-74
2023/07/01 09:41:13;;;;;;;1.10;0.43;;;;;;;23.27;43.13;99480.59;10241273;28;20070;-76
2023/07/01 09:46:15;;;;;;;0.70;0.60;;;;;;;23.12;43.68;99479.56;10241748;28;20402;-69
2023/07/01 09:51:16;;;;;;;2.25;0.50;;;;;;;23.11;43.62;99480.66;10247176;28;20130;-67
2023/07/01 09:56:19;;;;;;;4.00;0.40;;;;;;;23.07;43.80;99478.75;10248361;28;20062;-70
2023/07/01 10:01:20;;;;;;;0.75;0.38;;;;;;;23.12;43.98;99484.22;10247865;28;20553;-70
2023/07/01 10:06:24;;;;;;;0.60;0.40;;;;;;;23.09;43.77;99474.63;10243442;28;20114;-71
2023/07/01 10:11:26;;;;;;;1.58;0.65;;;;;;;23.17;44.37;99467.75;10240065;28;20057;-70
2023/07/01 10:16:27;;;;;;;1.90;0.40;;;;;;;23.22;44.27;99466.91;10223526;28;20388;-70
2023/07/01 10:21:30;;;;;;;1.35;0.38;;;;;;;23.22;44.43;99459.47;10226127;28;20503;-69
2023/07/01 10:26:31;;;;;;;1.70;0.30;;;;;;;22.94;45.45;99466.44;10243219;28;20157;-60
2023/07/01 10:31:33;;;;;;;3.03;0.52;;;;;;;22.90;46.03;99470.84;10245431;28;20067;-62
2023/07/01 10:37:10;;;;;;;2.70;0.40;;;;;;;22.81;46.65;99472.50;10252308;28;20209;-70
2023/07/01 10:42:31;;;;;;;2.47;0.43;;;;;;;22.62;47.23;99475.84;10262941;28;20052;-61
2023/07/01 10:47:33;;;;;;;1.60;0.32;;;;;;;22.50;48.05;99478.06;10256399;28;20051;-61
2023/07/01 10:52:56;;;;;;;2.90;0.55;;;;;;;22.35;48.85;99474.25;10254089;28;20055;-62
2023/07/01 10:58:15;;;;;;;0.68;0.38;;;;;;;22.35;48.83;99479.75;10260644;28;20057;-62
2023/07/01 11:03:34;;;;;;;1.20;0.55;;;;;;;22.34;49.37;99474.53;10268922;28;20459;-62
2023/07/01 11:08:49;;;;;;;1.27;0.40;;;;;;;22.24;50.10;99458.94;10259594;28;20494;-62
2023/07/01 11:14:00;;;;;;;1.05;0.40;;;;;;;21.98;51.82;99467.13;10264064;28;20047;-62
2023/07/01 11:19:07;;;;;;;1.17;0.40;;;;;;;21.82;52.60;99473.69;10268047;28;20075;-62
2023/07/01 11:24:10;;;;;;;3.25;1.02;;;;;;;21.53;53.74;99473.34;10261167;28;20115;-62
2023/07/01 11:29:18;;;;;;;0.70;0.50;;;;;;;21.33;54.74;99476.84;10266020;28;20058;-61
2023/07/01 11:34:19;;;;;;;2.10;0.50;;;;;;;21.13;55.88;99481.13;10271419;28;20051;-61
2023/07/01 11:39:21;;;;;;;4.78;0.80;;;;;;;20.76;57.20;99478.50;10296194;28;20046;-62
2023/07/01 11:44:25;;;;;;;2.20;0.82;;;;;;;20.68;57.89;99473.53;10298361;28;20039;-62
2023/07/01 11:49:31;;;;;;;1.92;0.85;;;;;;;20.66;58.47;99479.25;10294560;28;20047;-62
2023/07/01 11:54:38;;;;;;;3.40;0.55;;;;;;;20.82;58.27;99476.63;10281961;28;20047;-63
2023/07/01 11:59:44;;;;;;;0.93;0.70;;;;;;;20.97;58.17;99466.59;10266416;28;20098;-61
2023/07/01 12:04:51;;;;;;;1.30;0.60;;;;;;;21.08;58.01;99461.16;10290675;28;20073;-62
2023/07/01 12:09:52;;;;;;;1.13;0.40;;;;;;;21.36;57.56;99462.59;10293273;28;20058;-62
2023/07/01 12:15:01;;;;;;;3.50;0.60;;;;;;;21.68;56.94;99450.66;10289172;28;20070;-63
2023/07/01 12:20:05;;;;;;;1.00;0.70;;;;;;;21.83;56.47;99445.22;10284158;28;20055;-62
2023/07/01 12:25:07;;;;;;;0.95;0.40;;;;;;;21.97;56.04;99448.22;10280778;28;20055;-62
2023/07/01 12:30:09;;;;;;;0.88;0.50;;;;;;;22.05;55.78;99442.19;10279934;28;20059;-62
2023/07/01 12:35:14;;;;;;;1.17;0.50;;;;;;;22.12;55.08;99429.06;10273425;28;20047;-62
2023/07/01 12:40:16;;;;;;;0.68;0.50;;;;;;;22.13;54.99;99425.22;10271428;28;20123;-62
2023/07/01 12:45:17;;;;;;;4.32;0.80;;;;;;;22.26;54.26;99423.88;10280173;28;20059;-62
2023/07/01 12:50:19;;;;;;;2.30;0.47;;;;;;;22.26;54.48;99423.88;10290302;28;20680;-62
2023/07/01 12:55:20;;;;;;;2.90;0.40;;;;;;;22.31;53.93;99425.78;10282155;28;20161;-62
2023/07/01 13:00:22;;;;;;;6.30;0.90;;;;;;;22.49;53.69;99422.47;10271106;28;20054;-62
2023/07/01 13:05:24;;;;;;;0.30;0.30;;;;;;;22.52;53.36;99421.09;10272654;28;20070;-62
2023/07/01 13:10:26;;;;;;;0.90;0.47;;;;;;;22.61;53.17;99419.44;10267029;28;20067;-62
2023/07/01 13:15:30;;;;;;;1.85;0.40;;;;;;;22.66;52.65;99407.63;10260308;28;20129;-61
2023/07/01 13:20:34;;;;;;;1.50;0.70;;;;;;;22.63;52.46;99413.66;10261900;28;20403;-62
2023/07/01 13:25:35;;;;;;;4.18;0.75;;;;;;;22.45;52.60;99412.34;10272346;28;20061;-61
2023/07/01 13:30:50;;;;;;;1.17;0.57;;;;;;;22.49;52.45;99406.03;10261920;28;20051;-61
2023/07/01 13:35:52;;;;;;;0.95;0.50;;;;;;;22.58;52.61;99411.75;10260590;28;20047;-61
2023/07/01 13:40:53;;;;;;;0.98;0.47;;;;;;;22.38;53.06;99407.97;10270353;28;20051;-62
2023/07/01 13:45:58;;;;;;;1.73;0.60;;;;;;;22.25;54.06;99408.53;10263499;28;20051;-62
2023/07/01 13:51:00;;;;;;;1.25;0.60;;;;;;;22.19;54.97;99406.88;10265151;28;20066;-62
2023/07/01 13:56:01;;;;;;;2.35;0.70;;;;;;;22.11;55.39;99393.75;10276444;28;20047;-63
2023/07/01 14:01:03;;;;;;;2.00;0.50;;;;;;;22.17;55.47;99382.50;10268872;28;20079;-61
2023/07/01 14:06:04;;;;;;;3.30;0.80;;;;;;;22.29;55.40;99386.91;10273639;28;20055;-62
2023/07/01 14:11:09;;;;;;;1.55;0.60;;;;;;;22.33;56.10;99385.25;10268416;28;20090;-62
2023/07/01 14:16:14;;;;;;;5.07;0.90;;;;;;;22.39;55.80;99384.13;10262068;28;20054;-62
2023/07/01 14:21:16;;;;;;;3.00;1.30;;;;;;;22.34;55.48;99382.25;10238062;28;20126;-63
2023/07/01 14:26:25;;;;;;;2.20;0.80;;;;;;;22.39;55.18;99381.41;10264924;28;20059;-62
2023/07/01 14:31:30;;;;;;;2.55;0.70;;;;;;;22.27;54.85;99373.50;10261148;28;20050;-62
2023/07/01 14:36:36;;;;;;;1.67;0.43;;;;;;;22.37;54.66;99383.59;10249747;28;20055;-62
2023/07/01 14:41:41;;;;;;;2.38;0.50;;;;;;;22.23;55.66;99377.84;10263534;28;20059;-63
2023/07/01 14:46:44;;;;;;;2.38;0.88;;;;;;;21.06;59.94;99376.69;10256217;28;20043;-62
2023/07/01 14:51:45;;;;;;;1.95;0.63;;;;;;;20.66;61.54;99382.84;10245026;28;20062;-61
2023/07/01 14:56:50;;;;;;;3.42;1.02;;;;;;;20.59;61.81;99378.44;10268856;28;20047;-61
2023/07/01 15:01:57;;;;;;;1.23;0.75;;;;;;;20.76;61.20;99380.16;10247690;28;20493;-62
2023/07/01 15:06:58;;;;;;;1.90;0.70;;;;;;;20.72;61.77;99374.41;10230483;28;20130;-61
2023/07/01 15:12:00;;;;;;;4.00;1.20;;;;;;;20.82;61.01;99361.88;10256817;28;20362;-61
2023/07/01 15:17:02;;;;;;;2.08;0.80;;;;;;;20.95;60.74;99372.28;10267167;28;20098;-61
2023/07/01 15:22:04;;;;;;;0.52;0.40;;;;;;;21.04;60.30;99369.88;10267070;28;20058;-61
2023/07/01 15:27:07;;;;;;;0.85;0.55;;;;;;;21.17;60.04;99381.09;10260516;28;20099;-61
2023/07/01 15:32:08;;;;;;;1.25;0.60;;;;;;;21.31;59.91;99375.94;10250200;28;20059;-61
2023/07/01 15:37:10;;;;;;;1.10;0.80;;;;;;;21.57;59.49;99368.59;10254677;28;20051;-61
2023/07/01 15:42:11;;;;;;;1.15;0.55;;;;;;;21.74;59.19;99367.50;10276251;28;20047;-61
2023/07/01 15:47:13;;;;;;;0.82;0.50;;;;;;;21.79;59.19;99359.31;10258590;28;20074;-59
2023/07/01 15:52:14;;;;;;;1.95;0.50;;;;;;;21.89;59.00;99353.00;10245968;28;20047;-59
2023/07/01 15:57:16;;;;;;;3.45;0.60;;;;;;;21.98;59.13;99351.38;10246168;28;20058;-59
2023/07/01 16:02:18;;;;;;;0.57;0.40;;;;;;;22.17;58.65;99355.13;10246922;28;20062;-58
2023/07/01 16:07:42;;;;;;;2.80;0.63;;;;;;;22.16;58.76;99355.44;10241124;28;20495;-59
2023/07/01 16:12:47;;;;;;;1.30;0.60;;;;;;;22.18;58.74;99353.22;10247615;28;20059;-60
2023/07/01 16:17:53;;;;;;;1.33;0.60;;;;;;;22.08;59.10;99351.34;10242518;28;20059;-60
2023/07/01 16:22:54;;;;;;;2.00;0.45;;;;;;;22.10;58.99;99353.81;10235408;28;20470;-57
2023/07/01 16:27:56;;;;;;;2.15;0.70;;;;;;;22.13;59.11;99354.03;10221584;28;20090;-58
2023/07/01 16:32:58;;;;;;;1.35;0.52;;;;;;;21.95;59.66;99347.25;10242482;28;20047;-59
2023/07/01 16:38:00;;;;;;;4.95;1.27;;;;;;;21.92;59.79;99352.44;10227951;28;20058;-60
2023/07/01 16:43:09;;;;;;;1.45;0.60;;;;;;;22.02;59.63;99341.50;10248059;28;20054;-58
2023/07/01 16:48:23;;;;;;;3.70;0.80;;;;;;;22.05;59.72;99338.19;10244724;28;20138;-59
2023/07/01 16:53:24;;;;;;;2.20;0.70;;;;;;;22.06;59.39;99331.63;10242047;28;20137;-60
2023/07/01 16:58:42;;;;;;;3.70;0.70;;;;;;;22.21;59.14;99317.06;10223488;28;20062;-61
2023/07/01 17:03:43;;;;;;;2.20;0.70;;;;;;;22.24;58.90;99321.19;10245062;28;20039;-61
2023/07/01 17:08:48;;;;;;;0.93;0.60;;;;;;;22.30;59.17;99320.09;10244434;28;20063;-61
2023/07/01 17:13:49;;;;;;;1.70;0.50;;;;;;;22.36;58.95;99314.31;10240561;28;20043;-62
2023/07/01 17:18:50;;;;;;;2.03;0.60;;;;;;;22.55;58.61;99322.75;10246550;28;20054;-62
2023/07/01 17:23:52;;;;;;;8.18;0.82;;;;;;;22.80;58.03;99314.69;10245980;28;20545;-61
2023/07/01 17:28:54;;;;;;;1.85;0.70;;;;;;;22.75;58.44;99319.09;10238638;28;20047;-61
2023/07/01 17:33:55;;;;;;;6.03;0.50;;;;;;;22.71;58.34;99326.25;10238825;28;20565;-61
2023/07/01 17:38:56;;;;;;;1.35;0.30;;;;;;;22.67;58.52;99330.63;10247292;28;20050;-61
2023/07/01 17:44:00;;;;;;;1.40;0.45;;;;;;;22.67;58.53;99336.13;10245939;28;20058;-64
2023/07/01 17:49:02;;;;;;;1.38;0.40;;;;;;;22.68;58.65;99331.44;10256387;28;20051;-63
2023/07/01 17:54:03;;;;;;;1.02;0.57;;;;;;;22.66;58.95;99337.22;10254281;28;20044;-62
2023/07/01 17:59:04;;;;;;;2.55;0.60;;;;;;;22.30;60.40;99347.50;10252902;28;20063;-63
2023/07/01 18:04:06;;;;;;;0.60;0.50;;;;;;;21.98;60.79;99373.25;10258436;28;20051;-63
2023/07/01 18:09:07;;;;;;;2.40;0.70;;;;;;;21.03;63.88;99396.38;10253126;28;20133;-61
2023/07/01 18:14:09;;;;;;;3.78;0.80;;;;;;;20.06;68.12;99387.66;10252052;28;20077;-61
2023/07/01 18:19:10;;;;;;;2.40;0.73;;;;;;;19.89;69.64;99361.34;10256221;28;20054;-63
2023/07/01 18:24:13;;;;;;;0.70;0.57;;;;;;;19.67;70.90;99357.88;10260830;28;20054;-61
2023/07/01 18:29:15;;;;;;;1.02;0.68;;;;;;;19.59;71.50;99351.84;10254933;28;20530;-61
2023/07/01 18:34:18;;;;;;;3.60;0.90;;;;;;;19.53;71.99;99352.88;10257979;28;20399;-63
2023/07/01 18:39:21;;;;;;;1.58;0.85;;;;;;;19.47;72.78;99350.34;10257633;28;20055;-63
2023/07/01 18:44:23;;;;;;;1.75;0.80;;;;;;;19.50;72.81;99369.72;10256826;28;20051;-60
2023/07/01 18:49:24;;;;;;;1.10;0.80;;;;;;;19.59;73.45;99360.00;10254259;28;20079;-61
2023/07/01 18:54:26;;;;;;;0.73;0.60;;;;;;;19.50;73.95;99364.28;10266540;28;20047;-61
2023/07/01 18:59:27;;;;;;;0.95;0.73;;;;;;;19.57;74.03;99364.91;10262178;28;20042;-62
2023/07/01 19:04:29;;;;;;;0.60;0.40;;;;;;;19.55;74.34;99358.03;10255959;28;20051;-65
2023/07/01 19:09:30;;;;;;;1.38;0.60;;;;;;;19.56;74.54;99371.41;10257518;28;20043;-64
2023/07/01 19:14:33;;;;;;;1.77;0.60;;;;;;;19.53;74.81;99362.94;10253168;28;20051;-59
2023/07/01 19:19:35;;;;;;;1.25;0.60;;;;;;;19.56;74.83;99363.25;10251894;28;20055;-60
2023/07/01 19:24:36;;;;;;;1.55;0.80;;;;;;;19.59;74.75;99368.19;10256486;28;20070;-61
2023/07/01 19:29:38;;;;;;;1.85;0.82;;;;;;;19.61;74.95;99376.94;10259318;28;20059;-60
2023/07/01 19:34:40;;;;;;;2.72;1.02;;;;;;;19.62;74.95;99383.19;10237372;28;20074;-61
2023/07/01 19:39:41;;;;;;;2.28;0.82;;;;;;;19.60;75.13;99391.63;10262490;28;20069;-62
2023/07/01 19:44:43;;;;;;;1.10;1.00;;;;;;;19.67;74.74;99398.78;10255551;28;20047;-62
2023/07/01 19:49:44;;;;;;;2.72;1.40;;;;;;;19.67;74.78;99410.53;10258729;28;20050;-62
2023/07/01 19:54:46;;;;;;;2.60;1.25;;;;;;;19.68;75.17;99419.50;10256180;28;20043;-62
2023/07/01 19:59:47;;;;;;;1.55;1.15;;;;;;;19.75;74.64;99423.72;10250557;28;20057;-61
2023/07/01 20:04:48;;;;;;;2.20;1.65;;;;;;;19.82;74.89;99426.22;10256392;28;20095;-60
2023/07/01 20:09:50;;;;;;;3.38;1.58;;;;;;;19.85;74.68;99433.88;10252574;28;20051;-61
2023/07/01 20:14:53;;;;;;;3.05;1.23;;;;;;;19.87;74.94;99426.25;10253068;28;20050;-62
2023/07/01 20:19:54;;;;;;;1.98;1.05;;;;;;;19.88;74.62;99432.53;10254078;28;20450;-62
2023/07/01 20:24:56;;;;;;;2.60;2.13;;;;;;;19.89;74.72;99436.91;10252356;28;20049;-61
2023/07/01 20:29:57;;;;;;;2.45;1.40;;;;;;;19.94;74.25;99445.94;10251645;28;20056;-61
2023/07/01 20:34:59;;;;;;;5.15;3.35;;;;;;;19.98;74.44;99436.19;10245681;28;20059;-61
2023/07/01 20:40:03;;;;;;;2.15;1.40;;;;;;;20.08;74.30;99435.41;10254744;28;20132;-62
2023/07/01 20:45:05;;;;;;;2.67;1.48;;;;;;;20.12;74.13;99435.72;10252640;28;20054;-63
2023/07/01 20:50:07;;;;;;;1.70;1.42;;;;;;;20.14;74.30;99445.31;10231834;28;20062;-59
2023/07/01 20:55:10;;;;;;;2.10;1.63;;;;;;;20.11;74.18;99432.19;10248774;28;20057;-60
2023/07/01 21:00:12;;;;;;;2.72;1.15;;;;;;;20.06;74.25;99437.59;10255970;28;20049;-61
2023/07/01 21:05:13;;;;;;;2.65;1.10;;;;;;;20.07;74.54;99435.69;10251713;28;20058;-60
2023/07/01 21:10:15;;;;;;;1.35;0.85;;;;;;;20.03;74.41;99443.56;10244874;28;20054;-61
2023/07/01 21:15:17;;;;;;;1.88;1.10;;;;;;;20.01;74.48;99449.28;10247399;28;20051;-60
2023/07/01 21:20:19;;;;;;;2.28;0.80;;;;;;;19.99;74.71;99456.91;10232176;28;20126;-60
2023/07/01 21:25:21;;;;;;;2.80;0.75;;;;;;;20.06;74.63;99462.13;10252884;28;20402;-61
2023/07/01 21:30:29;;;;;;;3.83;1.00;;;;;;;20.10;74.08;99462.44;10246711;28;20058;-61
2023/07/01 21:35:42;;;;;;;2.08;1.27;;;;;;;20.09;74.03;99467.09;10217360;28;20076;-61
2023/07/01 21:40:46;;;;;;;3.22;0.98;;;;;;;20.12;73.96;99461.13;10246624;28;20427;-61
2023/07/01 21:45:51;;;;;;;1.77;0.95;;;;;;;20.12;73.68;99463.00;10240775;28;20047;-62
2023/07/01 21:51:01;;;;;;;1.35;1.10;;;;;;;20.12;73.42;99469.31;10242437;28;20047;-62
2023/07/01 21:56:04;;;;;;;1.30;1.05;;;;;;;20.12;73.69;99479.38;10240975;28;20521;-63
2023/07/01 22:01:14;;;;;;;1.33;0.98;;;;;;;20.06;73.25;99480.41;10247297;28;20047;-62
2023/07/01 22:06:15;;;;;;;2.05;1.17;;;;;;;20.01;73.19;99479.28;10230208;28;20058;-62
2023/07/01 22:11:17;;;;;;;1.42;1.23;;;;;;;19.97;73.15;99482.81;10244179;28;20152;-62
2023/07/01 22:16:18;;;;;;;2.20;1.42;;;;;;;19.89;73.33;99473.19;10228808;28;20127;-64
2023/07/01 22:21:20;;;;;;;3.22;0.90;;;;;;;19.89;73.02;99478.66;10237271;28;20052;-63
2023/07/01 22:26:22;;;;;;;1.30;0.98;;;;;;;19.79;72.96;99476.66;10237042;28;20047;-62
2023/07/01 22:31:23;;;;;;;1.58;0.90;;;;;;;19.82;72.67;99486.22;10243029;28;20057;-62
2023/07/01 22:36:25;;;;;;;1.50;1.20;;;;;;;19.76;72.32;99500.88;10249807;28;20047;-62
2023/07/01 22:41:27;;;;;;;1.00;0.90;;;;;;;19.77;71.87;99495.19;10256320;28;20061;-61
2023/07/01 22:46:28;;;;;;;1.75;1.00;;;;;;;19.67;71.75;99505.09;10252730;28;20054;-61
2023/07/01 22:51:30;;;;;;;4.30;1.15;;;;;;;19.57;72.12;99506.66;10250149;28;20518;-61
2023/07/01 22:56:31;;;;;;;6.85;1.27;;;;;;;19.50;72.12;99514.22;10249971;28;20047;-62
2023/07/01 23:01:33;;;;;;;2.97;1.20;;;;;;;19.48;71.89;99513.66;10247315;28;20165;-62
2023/07/01 23:06:35;;;;;;;1.45;1.25;;;;;;;19.50;71.79;99508.75;10247486;28;20035;-61
2023/07/01 23:11:36;;;;;;;5.70;1.45;;;;;;;19.45;72.13;99518.78;10246267;28;20506;-62
2023/07/01 23:16:37;;;;;;;2.50;1.27;;;;;;;19.28;72.40;99522.41;10246393;28;20058;-61
2023/07/01 23:21:39;;;;;;;4.10;1.48;;;;;;;19.24;72.45;99521.28;10231691;28;20383;-60
2023/07/01 23:26:41;;;;;;;4.28;1.10;;;;;;;19.21;72.33;99530.78;10252621;28;20398;-61